Time;durP1;ratioP1;P1;durP2;ratioP2;P2;SDS_P1;SDS_P2;PMS_P1;PMS_P2;Temp;Humidity;BMP_temperature;BMP_pressure;BME280_temperature;BME280_humidity;BME280_pressure;Samples;Min_cycle;Max_cycle;Signal;HPM_P1;HPM_P2
2022/11/11 00:02:12;;;;;;;14.40;7.20;;;5.70;99.90;;;4.39;100.00;98763.72;5072333;28;20979;-78
2022/11/11 00:04:38;;;;;;;12.70;6.60;;;5.70;99.90;;;4.35;100.00;98765.09;5071571;28;20617;-78
2022/11/11 00:07:04;;;;;;;17.17;7.95;;;5.60;99.90;;;4.40;100.00;98762.75;5072659;28;20422;-78
2022/11/11 00:09:30;;;;;;;16.70;8.27;;;5.70;99.90;;;4.37;100.00;98757.84;5072702;28;20411;-78
2022/11/11 00:11:58;;;;;;;12.07;6.82;;;5.60;99.90;;;4.31;100.00;98761.19;5072506;28;20920;-78
2022/11/11 00:14:23;;;;;;;13.48;6.72;;;5.60;99.90;;;4.26;100.00;98752.06;5071173;28;20422;-78
2022/11/11 00:25:05;;;;;;;15.40;8.13;;;5.50;99.90;;;4.20;100.00;98755.38;5071284;28;20430;-78
2022/11/11 00:27:33;;;;;;;15.93;7.75;;;5.50;99.90;;;4.17;100.00;98757.53;5063623;28;20411;-78
2022/11/11 00:29:59;;;;;;;12.68;7.22;;;5.50;99.90;;;4.12;100.00;98760.69;5072368;28;20403;-78
2022/11/11 00:32:26;;;;;;;19.37;8.97;;;5.40;99.90;;;4.11;100.00;98766.91;5053572;28;20437;-78
2022/11/11 00:37:42;;;;;;;18.15;8.18;;;5.40;99.90;;;4.10;100.00;98764.47;5072398;28;20403;-78
2022/11/11 00:40:10;;;;;;;16.37;7.90;;;5.40;99.90;;;4.07;100.00;98768.25;5072269;28;20411;-78
2022/11/11 00:42:37;;;;;;;14.18;7.95;;;5.40;99.90;;;4.05;100.00;98769.44;5072071;28;20436;-78
2022/11/11 00:45:05;;;;;;;11.25;7.07;;;5.30;99.90;;;4.02;100.00;98778.44;5070857;28;20415;-78
2022/11/11 00:53:08;;;;;;;13.40;7.20;;;5.30;99.90;;;4.00;100.00;98784.84;5071051;28;20530;-78
2022/11/11 00:55:34;;;;;;;11.32;6.75;;;5.30;99.90;;;3.97;100.00;98780.78;5071376;28;20407;-78
2022/11/11 00:58:01;;;;;;;19.80;7.70;;;5.30;99.90;;;3.97;100.00;98786.03;5071888;28;20769;-79
2022/11/11 01:00:27;;;;;;;15.13;7.50;;;5.30;99.90;;;3.94;100.00;98782.91;5071376;28;20416;-78
2022/11/11 01:02:53;;;;;;;12.02;7.22;;;5.20;99.90;;;3.92;100.00;98790.13;5070180;28;20408;-79
2022/11/11 01:05:19;;;;;;;18.88;8.05;;;5.20;99.90;;;3.93;100.00;98792.59;5071156;28;20454;-78
2022/11/11 01:07:48;;;;;;;15.07;6.90;;;5.20;99.90;;;3.89;100.00;98793.94;5071142;28;20490;-78
2022/11/11 01:10:36;;;;;;;12.65;7.50;;;5.20;99.90;;;3.87;100.00;98791.47;5053170;28;20777;-78
2022/11/11 01:13:11;;;;;;;20.35;8.30;;;5.20;99.90;;;3.91;100.00;98799.78;5070084;28;20440;-78
2022/11/11 01:15:37;;;;;;;21.38;9.23;;;5.20;99.90;;;3.95;100.00;98788.00;5070726;28;20533;-78
2022/11/11 01:18:03;;;;;;;16.40;8.50;;;5.20;99.90;;;3.93;100.00;98781.28;5071081;28;20463;-78
2022/11/11 01:20:29;;;;;;;15.38;8.35;;;5.20;99.90;;;3.93;100.00;98773.44;5070774;28;20403;-78
2022/11/11 01:22:55;;;;;;;18.08;8.82;;;5.20;99.90;;;3.87;100.00;98770.53;5069819;28;20408;-78
2022/11/11 01:25:21;;;;;;;15.02;7.60;;;5.20;99.90;;;3.84;100.00;98776.09;5070345;28;20751;-78
2022/11/11 01:27:47;;;;;;;15.50;7.85;;;5.10;99.90;;;3.83;100.00;98779.72;5070670;28;20403;-78
2022/11/11 01:30:14;;;;;;;17.45;8.07;;;5.10;99.90;;;3.81;100.00;98780.88;5070812;28;20932;-78
2022/11/11 01:32:41;;;;;;;14.40;7.50;;;5.10;99.90;;;3.79;100.00;98772.38;5069722;28;20423;-78
2022/11/11 01:35:07;;;;;;;16.00;7.73;;;5.10;99.90;;;3.81;100.00;98775.66;5069465;28;20609;-78
2022/11/11 01:37:34;;;;;;;18.80;7.80;;;5.10;99.90;;;3.80;100.00;98776.63;5070591;28;20419;-77
2022/11/11 01:40:00;;;;;;;14.77;7.15;;;5.00;99.90;;;3.77;100.00;98776.97;5069814;28;20486;-78
2022/11/11 01:42:26;;;;;;;13.70;7.07;;;5.00;99.90;;;3.75;100.00;98779.78;5070355;28;20404;-78
2022/11/11 01:44:52;;;;;;;12.43;7.20;;;5.00;99.90;;;3.76;100.00;98784.00;5069679;28;20934;-78
2022/11/11 01:47:21;;;;;;;11.95;6.97;;;5.00;99.90;;;3.73;100.00;98789.63;5070592;28;20407;-77
2022/11/11 01:49:53;;;;;;;15.00;6.70;;;5.00;99.90;;;3.72;100.00;98785.34;5070102;28;20411;-78
2022/11/11 01:52:25;;;;;;;10.68;6.93;;;5.00;99.90;;;3.71;100.00;98783.72;5070135;28;20423;-77
2022/11/11 01:54:55;;;;;;;13.05;6.85;;;5.00;99.90;;;3.70;100.00;98784.72;5069185;28;20483;-78
2022/11/11 01:57:29;;;;;;;15.07;7.57;;;5.00;99.90;;;3.71;100.00;98777.66;5070319;28;20901;-78
2022/11/11 02:00:00;;;;;;;16.70;8.80;;;5.00;99.90;;;3.75;100.00;98773.72;5069986;28;20521;-78
2022/11/11 02:02:36;;;;;;;14.88;7.85;;;5.10;99.90;;;3.71;100.00;98770.63;5082470;22;20842;-75
2022/11/11 02:07:50;;;;;;;13.75;7.35;;;5.00;99.90;;;3.68;100.00;98772.78;5061441;28;20537;-76
2022/11/11 02:10:19;;;;;;;13.50;7.13;;;5.00;99.90;;;3.65;100.00;98776.56;5060528;28;20498;-76
2022/11/11 02:15:29;;;;;;;11.73;7.35;;;4.90;99.90;;;3.61;100.00;98785.72;5062276;28;20944;-76
2022/11/11 02:17:57;;;;;;;16.15;8.20;;;4.90;99.90;;;3.70;100.00;98789.94;5048972;28;20508;-76
2022/11/11 02:20:26;;;;;;;13.88;7.50;;;4.90;99.90;;;3.65;100.00;98786.22;5050584;28;20401;-76
2022/11/11 02:23:02;;;;;;;16.73;7.80;;;4.90;99.90;;;3.60;100.00;98788.53;5049318;28;20477;-76
2022/11/11 02:25:31;;;;;;;16.20;7.70;;;4.90;99.90;;;3.63;100.00;98785.56;5050377;28;20871;-77
2022/11/11 02:28:03;;;;;;;13.23;7.78;;;4.90;99.90;;;3.63;100.00;98783.75;5050033;28;20401;-75
2022/11/11 02:30:29;;;;;;;19.00;7.55;;;4.90;99.90;;;3.63;100.00;98786.38;5050167;28;20398;-76
2022/11/11 02:32:55;;;;;;;18.92;8.65;;;4.90;99.90;;;3.68;100.00;98784.09;5048971;28;20512;-76
2022/11/11 02:35:29;;;;;;;17.10;7.95;;;5.00;99.90;;;3.64;100.00;98787.19;5049933;28;20846;-76
2022/11/11 02:37:54;;;;;;;16.00;8.05;;;4.90;99.90;;;3.62;100.00;98781.31;5050030;28;20474;-76
2022/11/11 02:40:27;;;;;;;15.20;8.00;;;4.90;99.90;;;3.62;100.00;98782.13;5065462;28;20448;-76
2022/11/11 02:42:54;;;;;;;19.05;8.07;;;4.90;99.90;;;3.62;100.00;98789.16;5048957;28;20402;-77
2022/11/11 02:45:20;;;;;;;22.25;9.80;;;4.90;99.90;;;3.68;100.00;98785.88;5049783;28;20414;-76
2022/11/11 02:47:45;;;;;;;22.03;9.63;;;4.90;99.90;;;3.70;100.00;98787.31;5049694;28;20491;-77
2022/11/11 02:50:11;;;;;;;19.85;9.27;;;5.00;99.90;;;3.68;100.00;98784.09;5050675;28;20938;-76
2022/11/11 02:52:37;;;;;;;20.75;8.93;;;5.00;99.90;;;3.69;100.00;98782.25;5050472;28;20527;-77
2022/11/11 02:55:05;;;;;;;26.67;10.10;;;4.90;99.90;;;3.73;100.00;98787.00;5056939;28;20414;-77
2022/11/11 02:57:31;;;;;;;16.10;8.30;;;5.00;99.90;;;3.68;100.00;98778.84;5049549;28;20420;-76
2022/11/11 03:00:00;;;;;;;23.90;9.55;;;5.00;99.90;;;3.72;100.00;98777.50;5049671;28;20496;-77
2022/11/11 03:02:26;;;;;;;21.95;9.20;;;5.00;99.90;;;3.66;100.00;98772.97;5049269;28;20410;-76
2022/11/11 03:04:52;;;;;;;14.73;8.05;;;4.90;99.90;;;3.65;100.00;98776.56;5057555;28;20498;-77
2022/11/11 03:07:18;;;;;;;15.35;8.10;;;4.90;99.90;;;3.63;100.00;98777.72;5055792;28;20431;-76
2022/11/11 03:09:44;;;;;;;17.65;8.43;;;4.90;99.90;;;3.63;100.00;98768.06;5049575;28;20417;-76
2022/11/11 03:12:10;;;;;;;21.37;9.77;;;4.90;99.90;;;3.63;100.00;98769.84;5049453;28;20441;-77
2022/11/11 03:14:36;;;;;;;20.50;9.85;;;4.90;99.90;;;3.63;100.00;98764.63;5045639;28;20447;-77
2022/11/11 03:19:47;;;;;;;19.30;8.88;;;4.90;99.90;;;3.57;100.00;98754.84;5067496;28;20425;-77
2022/11/11 03:22:13;;;;;;;18.20;9.40;;;4.90;99.90;;;3.56;100.00;98751.41;5057123;28;20409;-76
2022/11/11 03:27:23;;;;;;;16.17;8.52;;;4.80;99.90;;;3.55;100.00;98759.44;5068543;28;20466;-76
2022/11/11 03:29:49;;;;;;;18.67;8.80;;;4.80;99.90;;;3.54;100.00;98765.66;5068722;28;20435;-77
2022/11/11 03:32:16;;;;;;;21.27;8.90;;;4.80;99.90;;;3.55;100.00;98765.47;5067325;28;20494;-76
2022/11/11 03:34:42;;;;;;;23.85;10.07;;;4.80;99.90;;;3.57;100.00;98760.09;5043198;28;20947;-77
2022/11/11 03:39:55;;;;;;;19.83;9.38;;;4.80;99.90;;;3.56;100.00;98764.50;5068728;28;20399;-76
2022/11/11 03:42:21;;;;;;;25.90;9.77;;;4.80;99.90;;;3.56;100.00;98763.69;5068229;28;20820;-76
2022/11/11 03:44:47;;;;;;;31.80;10.95;;;4.80;99.90;;;3.57;100.00;98754.84;5054411;28;20407;-76
2022/11/11 03:47:15;;;;;;;24.03;9.97;;;4.90;99.90;;;3.55;100.00;98764.66;5067328;28;20424;-76
2022/11/11 03:49:44;;;;;;;23.15;9.75;;;4.80;99.90;;;3.54;100.00;98765.66;5060392;28;20492;-76
2022/11/11 03:52:11;;;;;;;20.00;10.05;;;4.80;99.90;;;3.54;100.00;98760.41;5049375;28;20823;-76
2022/11/11 03:54:37;;;;;;;22.00;9.50;;;4.80;99.90;;;3.50;100.00;98762.56;5051190;28;20438;-76
2022/11/11 03:59:47;;;;;;;29.50;11.10;;;4.80;99.90;;;3.50;100.00;98779.09;5068404;28;20465;-76
2022/11/11 04:10:30;;;;;;;17.83;8.88;;;4.80;99.90;;;3.45;100.00;98797.13;5072093;28;20449;-75
2022/11/11 04:23:57;;;;;;;25.73;10.70;;;4.70;99.90;;;3.45;100.00;98797.13;5070753;28;20402;-76
2022/11/11 04:26:23;;;;;;;21.52;10.30;;;4.70;99.90;;;3.44;100.00;98794.69;5053470;28;20410;-77
2022/11/11 04:31:34;;;;;;;24.60;10.50;;;4.70;99.90;;;3.46;100.00;98793.50;5045413;28;20481;-75
2022/11/11 04:33:59;;;;;;;18.50;9.75;;;4.80;99.90;;;3.41;100.00;98785.34;5051330;28;20512;-76
2022/11/11 04:36:27;;;;;;;16.10;9.00;;;4.70;99.90;;;3.39;100.00;98784.72;5054969;28;20553;-76
2022/11/11 04:41:37;;;;;;;17.77;8.75;;;4.70;99.90;;;3.38;100.00;98785.69;5071537;28;20452;-76
2022/11/11 04:46:48;;;;;;;17.17;8.02;;;4.70;99.90;;;3.35;100.00;98774.75;5060366;28;20462;-76
2022/11/11 04:49:14;;;;;;;14.27;7.03;;;4.60;99.90;;;3.35;100.00;98782.63;5054825;28;20814;-76
2022/11/11 04:54:26;;;;;;;22.85;8.35;;;4.60;99.90;;;3.32;100.00;98790.78;5053046;28;20434;-76
2022/11/11 04:56:53;;;;;;;34.03;8.35;;;4.60;99.90;;;3.29;100.00;98799.81;5071200;28;20502;-76
2022/11/11 04:59:19;;;;;;;16.58;8.07;;;4.60;99.90;;;3.29;100.00;98809.47;5070327;28;20422;-76
2022/11/11 05:04:30;;;;;;;16.08;8.70;;;4.60;99.90;;;3.26;100.00;98826.31;5062098;28;20436;-76
2022/11/11 05:09:42;;;;;;;18.30;8.38;;;4.60;99.90;;;3.23;100.00;98849.41;5064336;28;20878;-77
2022/11/11 05:12:07;;;;;;;16.67;7.68;;;4.50;99.90;;;3.20;100.00;98855.78;5051348;28;20409;-76
2022/11/11 05:22:49;;;;;;;20.48;9.13;;;4.50;99.90;;;3.17;100.00;98870.97;5051037;28;20898;-77
2022/11/11 05:25:24;;;;;;;20.38;9.52;;;4.50;99.90;;;3.19;100.00;98879.47;5051636;28;20492;-75
2022/11/11 05:27:51;;;;;;;23.38;9.48;;;4.50;99.90;;;3.17;100.00;98878.81;5052936;28;20414;-75
2022/11/11 05:30:18;;;;;;;26.48;9.88;;;4.50;99.90;;;3.13;100.00;98883.59;5051263;28;20413;-77
2022/11/11 05:32:45;;;;;;;18.88;9.77;;;4.40;99.90;;;3.10;100.00;98879.50;5047924;28;20444;-78
2022/11/11 05:35:12;;;;;;;20.88;10.60;;;4.40;99.90;;;3.10;100.00;98878.69;5050539;28;20775;-76
2022/11/11 05:37:38;;;;;;;23.42;10.30;;;4.40;99.90;;;3.11;100.00;98880.31;5052851;28;20416;-78
2022/11/11 05:40:07;;;;;;;25.02;10.10;;;4.40;99.90;;;3.10;100.00;98879.50;5052143;28;20421;-77
2022/11/11 05:42:33;;;;;;;23.98;10.27;;;4.40;99.90;;;3.10;100.00;98881.31;5053692;28;20444;-77
2022/11/11 05:44:59;;;;;;;19.58;10.10;;;4.40;99.90;;;3.11;100.00;98888.16;5052457;28;20432;-78
2022/11/11 05:47:25;;;;;;;20.25;9.68;;;4.40;99.90;;;3.10;100.00;98894.38;5052746;28;20466;-77
2022/11/11 05:49:52;;;;;;;16.23;8.50;;;4.40;99.90;;;3.09;100.00;98900.59;5050618;28;20417;-80
2022/11/11 05:52:18;;;;;;;18.80;9.15;;;4.40;99.90;;;3.08;100.00;98893.75;5054002;28;20427;-81
2022/11/11 05:54:44;;;;;;;18.05;8.85;;;4.40;99.90;;;3.10;100.00;98891.75;5051623;28;20427;-84
2022/11/11 05:57:12;;;;;;;16.63;8.93;;;4.40;99.90;;;3.09;100.00;98890.94;5053650;28;20413;-81
2022/11/11 05:59:38;;;;;;;16.25;8.40;;;4.40;99.90;;;3.08;100.00;98894.53;5059866;28;20514;-83
2022/11/11 06:02:04;;;;;;;23.43;9.60;;;4.40;99.90;;;3.10;100.00;98905.66;5050096;28;20413;-82
2022/11/11 06:04:30;;;;;;;24.48;9.20;;;4.40;99.90;;;3.10;100.00;98913.50;5050872;28;20727;-81
2022/11/11 06:06:56;;;;;;;24.23;10.13;;;4.40;99.90;;;3.14;100.00;98903.53;5064544;28;20773;-77
2022/11/11 06:09:22;;;;;;;21.40;9.80;;;4.40;99.90;;;3.11;100.00;98909.09;5066495;28;20493;-74
2022/11/11 06:11:48;;;;;;;21.90;9.93;;;4.40;99.90;;;3.09;100.00;98914.50;5049278;28;20417;-79
2022/11/11 06:14:15;;;;;;;22.33;9.95;;;4.40;99.90;;;3.08;100.00;98917.28;5053118;28;20411;-79
2022/11/11 06:16:41;;;;;;;24.20;10.32;;;4.40;99.90;;;3.14;100.00;98914.00;5054880;28;20448;-78
2022/11/11 06:19:07;;;;;;;24.43;9.63;;;4.40;99.90;;;3.11;100.00;98915.16;5055530;28;20448;-78
2022/11/11 06:21:55;;;;;;;23.05;9.93;;;4.40;99.90;;;3.11;100.00;98912.53;5049619;28;20423;-78
2022/11/11 06:24:19;;;;;;;23.35;9.23;;;4.40;99.90;;;3.10;100.00;98915.31;5047527;28;20855;-78
2022/11/11 06:26:45;;;;;;;18.27;8.48;;;4.40;99.90;;;3.09;100.00;98921.53;5067426;28;20490;-78
2022/11/11 06:29:10;;;;;;;24.45;9.43;;;4.40;99.90;;;3.09;100.00;98918.91;5069378;28;20416;-78
2022/11/11 06:31:38;;;;;;;29.07;10.60;;;4.40;99.90;;;3.14;100.00;98928.88;5060360;28;20417;-78
2022/11/11 06:34:04;;;;;;;24.58;10.30;;;4.40;99.90;;;3.14;100.00;98934.13;5061640;28;20419;-78
2022/11/11 06:36:29;;;;;;;29.52;11.15;;;4.40;99.90;;;3.15;100.00;98938.38;5057274;28;20909;-77
2022/11/11 06:38:55;;;;;;;34.30;12.23;;;4.40;99.90;;;3.13;100.00;98938.53;5056734;28;20418;-74
2022/11/11 06:41:24;;;;;;;31.90;13.13;;;4.40;99.90;;;3.13;100.00;98941.16;5062659;28;20430;-73
2022/11/11 06:43:50;;;;;;;27.27;12.60;;;4.40;99.90;;;3.13;100.00;98943.75;5041058;28;20918;-73
2022/11/11 06:46:22;;;;;;;23.27;10.70;;;4.40;99.90;;;3.15;100.00;98949.66;5057773;28;20404;-77
2022/11/11 06:48:50;;;;;;;34.63;13.45;;;4.40;99.90;;;3.21;100.00;98943.75;5047877;28;20420;-78
2022/11/11 06:51:16;;;;;;;19.33;9.57;;;4.50;99.90;;;3.21;100.00;98943.75;5048836;28;20415;-78
2022/11/11 06:53:43;;;;;;;23.25;10.55;;;4.50;99.90;;;3.24;100.00;98939.97;5044557;28;20807;-77
2022/11/11 06:56:11;;;;;;;25.70;10.80;;;4.50;99.90;;;3.27;100.00;98943.09;5039856;28;20416;-77
2022/11/11 06:58:37;;;;;;;29.42;11.48;;;4.50;99.90;;;3.29;100.00;98938.50;5044569;28;20496;-76
2022/11/11 07:01:04;;;;;;;25.47;10.63;;;4.60;99.90;;;3.32;100.00;98937.34;5041199;28;20413;-78
2022/11/11 07:03:31;;;;;;;31.13;13.18;;;4.60;99.90;;;3.45;100.00;98933.25;5046751;28;20431;-77
2022/11/11 07:05:59;;;;;;;29.10;12.03;;;4.60;99.90;;;3.41;100.00;98942.41;5052010;28;20433;-77
2022/11/11 07:08:26;;;;;;;27.05;11.57;;;4.60;99.90;;;3.44;100.00;98943.88;5040581;28;20473;-78
2022/11/11 07:10:52;;;;;;;27.55;11.65;;;4.70;99.90;;;3.47;100.00;98944.34;5052444;28;20426;-76
2022/11/11 07:13:18;;;;;;;26.07;11.43;;;4.70;99.90;;;3.55;100.00;98953.97;5062292;28;20960;-75
2022/11/11 07:15:44;;;;;;;34.50;13.70;;;4.80;99.90;;;3.63;100.00;98950.53;5058146;28;20413;-76
2022/11/11 07:18:11;;;;;;;22.40;10.77;;;4.80;99.90;;;3.67;100.00;98951.84;5049371;28;20415;-77
2022/11/11 07:20:38;;;;;;;30.42;11.68;;;4.90;99.90;;;3.74;100.00;98947.56;5047428;28;20415;-77
2022/11/11 07:23:05;;;;;;;31.83;11.97;;;5.00;99.90;;;3.81;100.00;98953.75;5057101;28;20874;-80
2022/11/11 07:25:32;;;;;;;33.00;12.27;;;5.00;99.90;;;3.89;100.00;98945.84;5055233;28;20550;-79
2022/11/11 07:27:58;;;;;;;27.35;11.07;;;5.10;99.90;;;3.95;100.00;98953.03;5054979;28;20406;-76
2022/11/11 07:30:24;;;;;;;24.80;11.25;;;5.10;99.90;;;4.02;100.00;98946.13;5050597;28;20417;-76
2022/11/11 07:32:51;;;;;;;23.15;10.50;;;5.20;99.90;;;4.11;100.00;98946.91;5049214;28;20763;-78
2022/11/11 07:35:19;;;;;;;26.17;11.50;;;5.30;99.90;;;4.18;100.00;98948.66;5050132;28;20544;-77
2022/11/11 07:37:45;;;;;;;32.72;12.73;;;5.30;99.90;;;4.27;100.00;98954.69;5055300;28;20458;-78
2022/11/11 07:40:15;;;;;;;26.10;11.60;;;5.40;99.90;;;4.35;100.00;98952.03;5053939;28;20405;-77
2022/11/11 07:42:42;;;;;;;23.92;11.20;;;5.50;99.90;;;4.48;100.00;98957.50;5063242;28;20758;-77
2022/11/11 07:45:11;;;;;;;26.48;11.63;;;5.60;99.90;;;4.56;100.00;98960.09;5051968;28;20513;-76
2022/11/11 07:47:37;;;;;;;34.67;15.25;;;5.70;99.90;;;4.63;100.00;98961.00;5056441;28;20940;-77
2022/11/11 07:50:05;;;;;;;29.13;13.37;;;5.80;99.90;;;4.76;100.00;98959.59;5054604;28;20421;-78
2022/11/11 07:52:31;;;;;;;29.33;13.88;;;5.80;99.90;;;4.81;100.00;98960.69;5056435;28;20912;-77
2022/11/11 07:54:57;;;;;;;32.72;14.77;;;5.90;99.90;;;4.90;100.00;98959.66;5053254;28;20457;-78
2022/11/11 07:57:24;;;;;;;48.70;16.65;;;6.00;99.90;;;5.06;100.00;98958.72;5057591;28;20808;-80
2022/11/11 07:59:50;;;;;;;39.53;16.55;;;6.10;99.90;;;5.07;100.00;98955.91;5054333;28;20437;-79
2022/11/11 08:02:16;;;;;;;38.08;16.52;;;6.20;99.90;;;5.07;100.00;98948.03;5062153;22;20438;-76
2022/11/11 08:04:42;;;;;;;41.83;16.13;;;6.20;99.90;;;5.15;100.00;98944.53;5025629;28;20407;-76
2022/11/11 08:07:08;;;;;;;40.53;15.82;;;6.20;99.90;;;5.21;100.00;98943.81;5030600;28;20415;-77
2022/11/11 08:09:34;;;;;;;37.70;16.08;;;6.30;99.90;;;5.27;100.00;98950.97;5020149;28;20411;-75
2022/11/11 08:14:46;;;;;;;32.00;14.93;;;6.40;99.90;;;5.43;100.00;98956.06;5030240;28;20441;-74
2022/11/11 08:17:12;;;;;;;39.42;14.98;;;6.50;99.90;;;5.53;100.00;98960.25;5013601;28;20429;-74
2022/11/11 08:19:38;;;;;;;35.22;14.38;;;6.60;99.90;;;5.54;100.00;98959.25;5013176;28;20407;-74
2022/11/11 08:22:05;;;;;;;31.95;13.50;;;6.60;99.90;;;5.63;100.00;98952.91;5031285;28;20896;-75
2022/11/11 08:24:31;;;;;;;31.37;13.83;;;6.60;99.90;;;5.64;100.00;98957.97;5030096;28;20504;-75
2022/11/11 08:26:57;;;;;;;33.70;12.80;;;6.70;99.90;;;5.74;100.00;98950.63;5031454;28;20450;-75
2022/11/11 08:29:23;;;;;;;28.10;12.03;;;6.80;99.90;;;5.84;100.00;98943.31;5030532;28;20496;-76
2022/11/11 08:31:51;;;;;;;23.63;10.77;;;6.90;99.90;;;5.96;100.00;98942.88;5031328;28;20484;-75
2022/11/11 08:34:17;;;;;;;34.30;12.20;;;7.00;99.90;;;6.03;100.00;98939.31;5030512;28;20419;-74
2022/11/11 08:36:43;;;;;;;21.45;11.00;;;7.10;99.90;;;6.13;100.00;98937.22;5030437;28;20410;-75
2022/11/11 08:39:10;;;;;;;22.48;10.45;;;7.20;99.90;;;6.20;100.00;98934.66;5030701;28;20407;-76
2022/11/11 08:41:36;;;;;;;21.83;10.57;;;7.20;99.90;;;6.23;100.00;98934.31;5031229;28;20411;-76
2022/11/11 08:44:03;;;;;;;23.43;10.13;;;7.30;99.90;;;6.30;100.00;98937.00;5030390;28;20780;-76
2022/11/11 08:46:30;;;;;;;29.60;11.85;;;7.30;99.90;;;6.29;100.00;98941.44;5030946;28;20476;-76
2022/11/11 08:48:57;;;;;;;24.70;11.07;;;7.30;99.90;;;6.31;100.00;98942.09;5030403;28;20438;-76
2022/11/11 08:51:23;;;;;;;23.67;10.60;;;7.40;99.90;;;6.33;100.00;98945.31;5030865;28;20742;-76
2022/11/11 08:53:49;;;;;;;27.85;10.95;;;7.40;99.90;;;6.33;100.00;98940.06;5029927;28;20438;-76
2022/11/11 08:56:15;;;;;;;30.48;12.15;;;7.40;99.90;;;6.37;100.00;98945.78;5031119;28;20407;-76
2022/11/11 08:58:41;;;;;;;25.37;11.30;;;7.40;99.90;;;6.43;100.00;98953.75;5030538;28;20434;-76
2022/11/11 09:01:12;;;;;;;19.95;10.35;;;7.40;99.90;;;6.55;100.00;98946.16;5030893;28;20912;-76
2022/11/11 09:03:40;;;;;;;22.55;11.07;;;7.50;99.90;;;6.67;100.00;98951.75;5028416;28;20411;-75
2022/11/11 09:06:07;;;;;;;19.33;10.13;;;7.60;99.90;;;6.82;100.00;98953.34;5029892;28;20411;-77
2022/11/11 09:08:33;;;;;;;18.20;8.40;;;7.80;99.90;;;6.90;100.00;98953.22;5030556;28;20838;-76
2022/11/11 09:10:59;;;;;;;20.15;9.05;;;7.90;99.90;;;6.96;100.00;98949.00;5030994;28;20494;-76
2022/11/11 09:13:25;;;;;;;16.92;8.30;;;7.90;99.90;;;7.07;100.00;98955.59;5011741;28;20857;-75
2022/11/11 09:15:52;;;;;;;17.53;8.27;;;8.00;99.90;;;7.15;100.00;98952.78;5030319;28;20411;-75
2022/11/11 09:18:18;;;;;;;15.30;8.13;;;8.10;99.90;;;7.27;100.00;98957.38;5030237;28;20928;-75
2022/11/11 09:20:44;;;;;;;16.85;8.23;;;8.20;99.90;;;7.43;100.00;98961.53;5030217;28;20415;-76
2022/11/11 09:23:12;;;;;;;13.23;6.60;;;8.30;99.90;;;7.64;100.00;98963.28;5030824;28;20512;-74
2022/11/11 09:25:38;;;;;;;18.52;7.88;;;8.60;99.90;;;7.79;100.00;98950.81;5036749;28;20489;-74
2022/11/11 09:28:04;;;;;;;14.10;7.10;;;8.70;99.90;;;7.97;100.00;98945.03;5030481;28;20407;-76
2022/11/11 09:30:30;;;;;;;12.40;6.60;;;8.90;99.90;;;8.11;100.00;98939.59;5030753;28;20415;-75
2022/11/11 09:33:01;;;;;;;13.15;6.65;;;9.00;99.90;;;8.31;100.00;98947.59;5011966;28;20827;-74
2022/11/11 09:35:27;;;;;;;12.10;6.90;;;9.20;99.90;;;8.40;100.00;98935.88;5018256;28;20415;-77
2022/11/11 09:37:55;;;;;;;11.27;6.00;;;9.30;99.90;;;8.60;100.00;98941.19;5029970;28;20483;-78
2022/11/11 09:40:25;;;;;;;10.68;5.72;;;9.50;99.90;;;8.99;100.00;98942.25;5012340;28;20518;-80
2022/11/11 09:43:10;;;;;;;8.73;5.30;;;9.80;99.90;;;9.42;100.00;98945.28;5028736;28;20435;-77
2022/11/11 09:45:51;;;;;;;8.98;4.60;;;10.20;99.90;;;9.91;100.00;98939.50;5028532;28;20419;-76
2022/11/11 09:48:37;;;;;;;11.35;5.30;;;10.60;99.90;;;10.48;100.00;98936.81;5024341;28;20427;-78
2022/11/11 09:51:08;;;;;;;10.50;5.10;;;11.10;99.90;;;10.88;100.00;98930.47;5031856;28;20417;-76
2022/11/11 09:53:38;;;;;;;6.73;4.63;;;11.50;99.90;;;11.02;100.00;98935.47;5024922;28;20498;-76
2022/11/11 09:56:11;;;;;;;7.78;4.13;;;11.80;99.90;;;10.99;100.00;98922.63;5027337;28;20426;-76
2022/11/11 09:58:42;;;;;;;10.90;4.40;;;11.80;99.90;;;11.10;100.00;98924.59;5027406;28;20981;-77
2022/11/11 10:01:13;;;;;;;8.18;4.20;;;11.90;99.90;;;11.38;100.00;98924.13;5026578;28;20468;-79
2022/11/11 10:03:45;;;;;;;8.88;4.25;;;12.20;99.90;;;11.72;100.00;98921.97;5027178;28;20987;-78
2022/11/11 10:06:20;;;;;;;11.73;4.70;;;12.50;99.90;;;11.80;100.00;98924.38;5025332;28;20425;-77
2022/11/11 10:08:55;;;;;;;9.95;3.97;;;12.70;99.90;;;12.15;100.00;98919.25;5028249;28;20904;-76
2022/11/11 10:11:38;;;;;;;7.93;3.87;;;13.00;99.90;;;12.47;100.00;98922.53;5021399;28;20511;-75
2022/11/11 10:14:04;;;;;;;8.02;3.40;;;13.30;99.90;;;12.76;100.00;98924.34;5010453;28;20924;-76
2022/11/11 10:16:41;;;;;;;9.77;3.88;;;13.60;99.90;;;12.92;100.00;98920.22;5009828;28;20419;-80
2022/11/11 10:19:26;;;;;;;6.60;3.60;;;13.70;99.90;;;13.04;100.00;98921.84;5028065;28;21017;-76
2022/11/11 10:21:56;;;;;;;8.13;3.80;;;13.90;99.90;;;13.11;100.00;98919.09;5027191;28;20465;-77
2022/11/11 10:24:29;;;;;;;8.50;3.78;;;14.00;99.90;;;13.25;100.00;98927.69;5010233;28;20438;-76
2022/11/11 10:27:03;;;;;;;8.55;4.22;;;14.10;99.90;;;13.31;100.00;98927.56;5036068;28;20407;-80
2022/11/11 10:29:43;;;;;;;6.03;3.90;;;14.20;99.90;;;13.38;100.00;98922.94;5026925;28;20437;-75
2022/11/11 10:32:17;;;;;;;9.32;4.10;;;14.20;99.90;;;13.53;100.00;98925.94;5026605;28;20412;-77
2022/11/11 10:34:43;;;;;;;8.25;4.20;;;14.40;99.90;;;13.61;100.00;98932.75;5027908;28;20909;-78
2022/11/11 10:37:18;;;;;;;7.70;3.83;;;14.50;99.90;;;13.78;100.00;98930.22;5023243;28;20423;-80
2022/11/11 10:39:59;;;;;;;10.90;4.35;;;14.70;99.90;;;14.00;100.00;98941.88;5026914;28;20407;-76
2022/11/11 10:42:26;;;;;;;9.90;4.60;;;15.00;99.90;;;14.31;100.00;98935.28;5009898;28;20411;-76
2022/11/11 10:44:59;;;;;;;9.98;4.68;;;15.20;99.90;;;14.60;100.00;98933.47;5020242;28;20407;-76
2022/11/11 10:47:41;;;;;;;8.02;4.18;;;15.60;99.90;;;14.92;100.00;98934.59;5028473;28;20418;-77
2022/11/11 10:50:15;;;;;;;7.80;3.78;;;15.80;99.90;;;15.17;100.00;98936.06;5021306;28;20820;-76
2022/11/11 10:52:47;;;;;;;7.43;4.30;;;16.10;99.90;;;15.27;100.00;98936.19;5027226;28;20792;-81
2022/11/11 10:55:19;;;;;;;12.88;5.22;;;16.10;99.90;;;15.25;100.00;98928.47;5029284;28;20425;-80
2022/11/11 10:57:54;;;;;;;7.90;4.55;;;16.20;99.90;;;15.45;100.00;98926.09;5029383;28;20414;-78
2022/11/11 11:00:20;;;;;;;8.73;4.00;;;16.30;99.90;;;15.42;100.00;98920.44;5011025;28;20401;-75
2022/11/11 11:02:58;;;;;;;7.60;4.20;;;16.30;99.90;;;15.30;100.00;98917.88;5028353;28;20876;-76
2022/11/11 11:05:29;;;;;;;9.93;4.90;;;16.20;99.90;;;15.31;100.00;98910.66;5021362;28;20399;-76
2022/11/11 11:08:07;;;;;;;12.52;5.30;;;16.10;99.90;;;15.47;100.00;98909.84;5028656;28;20885;-77
2022/11/11 11:10:39;;;;;;;11.88;5.30;;;16.20;99.90;;;15.67;100.00;98909.34;5010493;28;20797;-76
2022/11/11 11:13:14;;;;;;;9.38;4.40;;;16.40;99.90;;;15.91;100.00;98904.59;5031716;28;20510;-79
2022/11/11 11:15:49;;;;;;;6.38;3.92;;;16.60;99.90;;;15.96;100.00;98905.44;5026843;28;20502;-78
2022/11/11 11:18:17;;;;;;;14.32;5.68;;;16.70;99.90;;;15.99;100.00;98896.94;5032891;28;20446;-78
2022/11/11 11:20:56;;;;;;;9.07;4.65;;;16.80;99.90;;;16.08;100.00;98894.66;5032544;28;20417;-78
2022/11/11 11:23:37;;;;;;;13.18;4.45;;;16.90;99.90;;;16.00;100.00;98900.44;5030490;28;20411;-78
2022/11/11 11:26:04;;;;;;;9.65;4.85;;;16.80;99.90;;;15.88;100.00;98904.03;5032188;28;20454;-76
2022/11/11 11:29:00;;;;;;;8.20;5.18;;;16.60;99.90;;;15.52;100.00;98898.44;5014772;28;20533;-77
2022/11/11 11:31:36;;;;;;;10.70;5.30;;;16.30;99.90;;;15.16;100.00;98900.56;5029740;28;20418;-78
2022/11/11 11:34:03;;;;;;;9.00;4.88;;;15.90;99.90;;;14.79;100.00;98902.09;5031800;28;20421;-76
2022/11/11 11:36:29;;;;;;;9.73;4.72;;;15.60;99.90;;;14.53;100.00;98898.97;5032376;28;20418;-78
2022/11/11 11:38:55;;;;;;;9.65;5.45;;;15.30;99.90;;;14.36;100.00;98900.75;5014872;28;20395;-76
2022/11/11 11:41:37;;;;;;;9.25;5.15;;;15.10;99.90;;;14.12;100.00;98891.25;5031284;28;20422;-76